createdAt,value
2023-01-01T00:06:56.112Z,15.80
2023-01-01T00:13:56.497Z,15.80
2023-01-01T00:21:09.962Z,15.90
2023-01-01T00:28:10.632Z,15.80
2023-01-01T00:35:11.110Z,15.80
2023-01-01T00:42:11.425Z,15.70
2023-01-01T00:49:11.898Z,15.60
2023-01-01T00:56:12.377Z,15.60
2023-01-01T01:03:28.041Z,15.50
2023-01-01T01:10:28.844Z,15.40
2023-01-01T01:17:29.771Z,15.40
2023-01-01T01:24:30.600Z,15.30
2023-01-01T01:31:33.384Z,15.20
2023-01-01T01:38:34.326Z,15.20
2023-01-01T01:45:35.891Z,15.20
2023-01-01T01:52:40.900Z,15.10
2023-01-01T01:59:48.351Z,15.10
2023-01-01T02:06:50.012Z,15.10
2023-01-01T02:13:51.525Z,15.10
2023-01-01T02:21:17.040Z,15.00
2023-01-01T02:28:39.563Z,15.00
2023-01-01T02:35:45.476Z,15.00
2023-01-01T02:42:45.952Z,15.00
2023-01-01T02:50:25.327Z,15.00
2023-01-01T02:57:37.977Z,15.00
2023-01-01T03:04:49.787Z,14.90
2023-01-01T03:12:20.786Z,14.90
2023-01-01T03:19:26.872Z,14.90
2023-01-01T03:26:31.217Z,14.90
2023-01-01T03:34:01.047Z,14.90
2023-01-01T03:41:07.239Z,15.00
2023-01-01T03:48:07.738Z,15.00
2023-01-01T03:55:23.386Z,15.00
2023-01-01T04:02:30.991Z,15.00
2023-01-01T04:09:35.655Z,15.00
2023-01-01T04:16:35.905Z,14.90
2023-01-01T04:23:36.691Z,14.90
2023-01-01T04:37:36.625Z,14.90
2023-01-01T04:44:37.119Z,14.90
2023-01-01T04:51:37.393Z,14.90
2023-01-01T04:58:39.531Z,14.90
2023-01-01T05:05:39.676Z,15.00
2023-01-01T05:12:40.019Z,14.90
2023-01-01T05:19:40.696Z,14.90
2023-01-01T05:26:43.308Z,14.90
2023-01-01T05:33:43.622Z,14.90
2023-01-01T05:40:44.059Z,14.90
2023-01-01T05:47:44.318Z,14.80
2023-01-01T05:54:44.853Z,14.80
2023-01-01T06:01:46.289Z,14.80
2023-01-01T06:08:52.415Z,14.80
2023-01-01T06:15:57.104Z,14.80
2023-01-01T06:22:58.542Z,14.70
2023-01-01T06:29:59.112Z,14.60
2023-01-01T06:37:04.715Z,14.60
2023-01-01T06:44:07.464Z,14.60
2023-01-01T06:51:13.533Z,14.60
2023-01-01T06:58:14.441Z,14.70
2023-01-01T07:05:14.629Z,14.70
2023-01-01T07:12:14.964Z,14.70
2023-01-01T07:19:15.434Z,14.70
2023-01-01T07:26:15.889Z,14.70
2023-01-01T07:33:21.921Z,14.70
2023-01-01T07:40:22.180Z,14.70
2023-01-01T07:47:24.966Z,14.70
2023-01-01T07:54:25.317Z,14.80
2023-01-01T08:01:25.677Z,14.80
2023-01-01T08:08:26.110Z,14.90
2023-01-01T08:15:26.643Z,14.90
2023-01-01T08:22:27.163Z,14.90
2023-01-01T08:29:27.583Z,14.90
2023-01-01T08:36:28.230Z,14.80
2023-01-01T08:43:28.722Z,14.80
2023-01-01T08:50:29.200Z,14.70
2023-01-01T08:57:32.702Z,14.70
2023-01-01T09:04:33.000Z,14.70
2023-01-01T09:11:33.573Z,14.60
2023-01-01T09:18:35.998Z,14.60
2023-01-01T09:25:36.587Z,14.60
2023-01-01T09:32:36.688Z,14.50
2023-01-01T09:39:36.971Z,14.50
2023-01-01T09:46:37.954Z,14.50
2023-01-01T09:53:44.650Z,14.50
2023-01-01T10:00:48.066Z,14.50
2023-01-01T10:08:10.547Z,14.60
2023-01-01T10:15:27.532Z,14.60
2023-01-01T10:22:42.266Z,14.60
2023-01-01T10:29:50.213Z,14.60
2023-01-01T10:36:53.741Z,14.70
2023-01-01T10:43:54.020Z,14.60
2023-01-01T10:50:59.610Z,14.60
2023-01-01T10:57:59.843Z,14.60
2023-01-01T11:05:22.481Z,14.60
2023-01-01T11:13:03.139Z,14.70
2023-01-01T11:19:54.601Z,14.70
2023-01-01T11:27:21.118Z,14.70
2023-01-01T11:34:29.347Z,14.70
2023-01-01T11:41:29.668Z,14.80
2023-01-01T11:48:34.530Z,14.70
2023-01-01T11:55:42.277Z,14.80
2023-01-01T12:02:57.236Z,14.80
2023-01-01T12:10:06.189Z,14.80
2023-01-01T12:17:27.713Z,14.70
2023-01-01T12:24:33.716Z,14.80
2023-01-01T12:32:01.478Z,14.80
2023-01-01T12:39:26.747Z,14.80
2023-01-01T12:46:40.228Z,14.80
2023-01-01T12:53:49.632Z,14.70
2023-01-01T13:00:58.968Z,14.70
2023-01-01T13:08:01.261Z,14.70
2023-01-01T13:15:36.870Z,14.70
2023-01-01T13:22:39.034Z,14.60
2023-01-01T13:29:44.558Z,14.60
2023-01-01T13:36:45.067Z,14.60
2023-01-01T13:43:45.421Z,14.60
2023-01-01T13:51:04.702Z,14.60
2023-01-01T13:58:47.985Z,14.60
2023-01-01T14:05:55.534Z,14.60
2023-01-01T14:13:29.769Z,14.60
2023-01-01T14:20:53.432Z,14.60
2023-01-01T14:27:56.343Z,14.60
2023-01-01T14:35:01.630Z,14.60
2023-01-01T14:42:08.677Z,14.60
2023-01-01T14:49:11.689Z,14.60
2023-01-01T14:56:27.039Z,14.60
2023-01-01T15:03:27.198Z,14.60
2023-01-01T15:10:29.789Z,14.60
2023-01-01T15:17:45.717Z,14.60
2023-01-01T15:24:46.318Z,14.50
2023-01-01T15:31:53.759Z,14.50
2023-01-01T15:38:54.366Z,14.40
2023-01-01T15:46:18.763Z,14.20
2023-01-01T15:53:24.683Z,14.00
2023-01-01T16:00:31.531Z,13.80
2023-01-01T16:07:32.259Z,13.70
2023-01-01T16:14:32.332Z,13.60
2023-01-01T16:21:33.049Z,13.40
2023-01-01T16:28:33.199Z,13.30
2023-01-01T16:35:33.669Z,13.20
2023-01-01T16:42:34.082Z,13.00
2023-01-01T16:49:34.536Z,12.90
2023-01-01T16:56:34.903Z,12.70
2023-01-01T17:03:35.813Z,12.60
2023-01-01T17:10:35.842Z,12.50
2023-01-01T17:17:36.272Z,12.40
2023-01-01T17:24:38.808Z,12.30
2023-01-01T17:31:39.252Z,12.30
2023-01-01T17:38:39.648Z,12.20
2023-01-01T17:45:40.008Z,12.20
2023-01-01T17:52:40.530Z,12.10
2023-01-01T17:59:41.022Z,12.00
2023-01-01T18:06:43.667Z,12.00
2023-01-01T18:13:45.041Z,11.90
2023-01-01T18:20:45.336Z,11.90
2023-01-01T18:27:45.674Z,11.80
2023-01-01T18:34:46.161Z,11.80
2023-01-01T18:42:18.075Z,11.80
2023-01-01T18:49:18.337Z,11.70
2023-01-01T18:56:18.819Z,11.70
2023-01-01T19:03:28.203Z,11.60
2023-01-01T19:10:56.164Z,11.50
2023-01-01T19:17:56.515Z,11.50
2023-01-01T19:24:57.221Z,11.50
2023-01-01T19:31:59.243Z,11.50
2023-01-01T19:38:59.830Z,11.50
2023-01-01T19:46:00.277Z,11.60
2023-01-01T19:53:00.794Z,11.50
2023-01-01T20:00:01.405Z,11.50
2023-01-01T20:07:01.908Z,11.50
2023-01-01T20:14:03.418Z,11.50
2023-01-01T20:21:26.504Z,11.50
2023-01-01T20:28:45.858Z,11.50
2023-01-01T20:36:04.994Z,11.50
2023-01-01T20:43:05.527Z,11.60
2023-01-01T20:50:06.383Z,11.60
2023-01-01T20:57:06.514Z,11.60
2023-01-01T21:04:06.991Z,11.60
2023-01-01T21:11:07.558Z,11.70
2023-01-01T21:18:11.407Z,11.60
2023-01-01T21:25:50.464Z,11.70
2023-01-01T21:32:48.739Z,11.70
2023-01-01T21:39:49.226Z,11.80
2023-01-01T21:46:56.833Z,11.80
2023-01-01T21:54:14.748Z,11.90
2023-01-01T22:01:36.572Z,11.90
2023-01-01T22:08:39.923Z,12.00
2023-01-01T22:15:41.692Z,12.10
2023-01-01T22:22:43.159Z,12.10
2023-01-01T22:29:44.696Z,12.20
2023-01-01T22:36:45.419Z,12.30
2023-01-01T22:43:48.221Z,12.30
2023-01-01T22:50:48.963Z,12.40
2023-01-01T22:57:49.427Z,12.40
2023-01-01T23:04:49.752Z,12.50
2023-01-01T23:11:50.800Z,12.50
2023-01-01T23:18:51.150Z,12.60
2023-01-01T23:25:51.942Z,12.70
2023-01-01T23:32:52.103Z,12.70
2023-01-01T23:39:52.854Z,12.80
2023-01-01T23:46:53.813Z,12.90
2023-01-01T23:53:54.284Z,12.90
